LIRS/GRS METAR and TAF weather

Enter ICAO airport designator
Station Type Date Time Source
LIRS METAR 2019/04/25 08:55 UTC NOAA

LIRS 250855Z 33003KT 260V350 CAVOK 20/13 Q1017


Station Type Date Time Source
LIRS Decoded METAR 2019/04/25 08:55 UTC NOAA

Grosseto, Italy (LIRS) 42-45N 011-04E 7M
Apr 25, 2019 - 04:55 AM EDT / 2019.04.25 0855 UTC
Wind: from the NNW (330 degrees) at 3 MPH (3 KT) (direction variable):0
Visibility: greater than 7 mile(s):0
Temperature: 68 F (20 C)
Dew Point: 55 F (13 C)
Relative Humidity: 64%
Pressure (altimeter): 30.03 in. Hg (1017 hPa)
ob: LIRS 250855Z 33003KT 260V350 CAVOK 20/13 Q1017
cycle: 9

Station Type Date Time Source
LIRS TAF 2018/06/29 09:24 UTC NOAA

TAF TAF LIRS 290800Z 2909/2921 VRB03KT 9999 FEW030
BECMG 2911/2913 24015KT

Example: see airport list